sensor_id;sensor_type;location;lat;lon;timestamp;pressure;altitude;pressure_sealevel;temperature;humidity
2268;BME280;11052;43.338;25.502;2023-04-28T00:00:56;100912.78;;;9.37;100.00
2268;BME280;11052;43.338;25.502;2023-04-28T00:03:23;100916.97;;;9.45;100.00
2268;BME280;11052;43.338;25.502;2023-04-28T00:05:52;100920.44;;;9.44;100.00
2268;BME280;11052;43.338;25.502;2023-04-28T00:08:19;100921.31;;;9.43;100.00
2268;BME280;11052;43.338;25.502;2023-04-28T00:10:47;100924.00;;;9.37;100.00
2268;BME280;11052;43.338;25.502;2023-04-28T00:13:16;100929.19;;;9.37;100.00
2268;BME280;11052;43.338;25.502;2023-04-28T00:15:43;100931.66;;;9.43;100.00
2268;BME280;11052;43.338;25.502;2023-04-28T00:18:10;100933.47;;;9.38;100.00
2268;BME280;11052;43.338;25.502;2023-04-28T00:20:37;100940.44;;;9.35;100.00
2268;BME280;11052;43.338;25.502;2023-04-28T00:23:04;100940.66;;;9.19;100.00
2268;BME280;11052;43.338;25.502;2023-04-28T00:25:31;100942.53;;;9.08;100.00
2268;BME280;11052;43.338;25.502;2023-04-28T00:27:58;100941.69;;;9.06;100.00
2268;BME280;11052;43.338;25.502;2023-04-28T00:30:28;100952.06;;;9.03;100.00
2268;BME280;11052;43.338;25.502;2023-04-28T00:32:56;100952.84;;;9.10;100.00
2268;BME280;11052;43.338;25.502;2023-04-28T00:35:23;100961.53;;;9.06;100.00
2268;BME280;11052;43.338;25.502;2023-04-28T00:37:50;100949.66;;;8.91;100.00
2268;BME280;11052;43.338;25.502;2023-04-28T00:40:17;100944.44;;;8.94;100.00
2268;BME280;11052;43.338;25.502;2023-04-28T00:42:44;100947.91;;;8.93;100.00
2268;BME280;11052;43.338;25.502;2023-04-28T00:45:11;100948.81;;;8.87;100.00
2268;BME280;11052;43.338;25.502;2023-04-28T00:47:41;100964.53;;;8.72;100.00
2268;BME280;11052;43.338;25.502;2023-04-28T00:50:09;100960.41;;;8.58;100.00
2268;BME280;11052;43.338;25.502;2023-04-28T00:52:37;100967.22;;;8.66;100.00
2268;BME280;11052;43.338;25.502;2023-04-28T00:55:05;100971.47;;;8.67;100.00
2268;BME280;11052;43.338;25.502;2023-04-28T00:57:33;100974.09;;;8.66;100.00
2268;BME280;11052;43.338;25.502;2023-04-28T01:00:01;100977.31;;;8.84;100.00
2268;BME280;11052;43.338;25.502;2023-04-28T01:02:30;100981.78;;;8.70;100.00
2268;BME280;11052;43.338;25.502;2023-04-28T01:04:59;100980.91;;;8.71;100.00
2268;BME280;11052;43.338;25.502;2023-04-28T01:07:27;100985.16;;;8.75;100.00
2268;BME280;11052;43.338;25.502;2023-04-28T01:09:54;100986.97;;;8.67;100.00
2268;BME280;11052;43.338;25.502;2023-04-28T01:12:22;100988.84;;;8.56;100.00
2268;BME280;11052;43.338;25.502;2023-04-28T01:14:49;100987.06;;;8.63;100.00
2268;BME280;11052;43.338;25.502;2023-04-28T01:17:16;100993.06;;;8.66;100.00
2268;BME280;11052;43.338;25.502;2023-04-28T01:19:44;100989.66;;;8.61;100.00
2268;BME280;11052;43.338;25.502;2023-04-28T01:22:12;101002.41;;;8.73;100.00
2268;BME280;11052;43.338;25.502;2023-04-28T01:24:42;100996.31;;;8.79;100.00
2268;BME280;11052;43.338;25.502;2023-04-28T01:27:09;100999.81;;;8.75;100.00
2268;BME280;11052;43.338;25.502;2023-04-28T01:29:36;101004.88;;;8.85;100.00
2268;BME280;11052;43.338;25.502;2023-04-28T01:32:04;101005.81;;;8.78;100.00
2268;BME280;11052;43.338;25.502;2023-04-28T01:34:31;101010.13;;;8.76;100.00
2268;BME280;11052;43.338;25.502;2023-04-28T01:36:58;101001.59;;;8.71;100.00
2268;BME280;11052;43.338;25.502;2023-04-28T01:39:25;101005.06;;;8.67;100.00
2268;BME280;11052;43.338;25.502;2023-04-28T01:41:53;101007.63;;;8.70;100.00
2268;BME280;11052;43.338;25.502;2023-04-28T01:44:20;101018.06;;;8.64;100.00
2268;BME280;11052;43.338;25.502;2023-04-28T01:46:47;101018.78;;;8.75;100.00
2268;BME280;11052;43.338;25.502;2023-04-28T01:49:15;101017.94;;;8.73;100.00
2268;BME280;11052;43.338;25.502;2023-04-28T01:51:42;101019.81;;;8.62;100.00
2268;BME280;11052;43.338;25.502;2023-04-28T01:54:09;101017.22;;;8.62;100.00
2268;BME280;11052;43.338;25.502;2023-04-28T01:56:36;101024.88;;;8.68;100.00
2268;BME280;11052;43.338;25.502;2023-04-28T01:59:04;101022.41;;;8.61;100.00
2268;BME280;11052;43.338;25.502;2023-04-28T02:01:31;101023.28;;;8.60;100.00
2268;BME280;11052;43.338;25.502;2023-04-28T02:03:58;101028.44;;;8.61;100.00
2268;BME280;11052;43.338;25.502;2023-04-28T02:06:26;101022.38;;;8.62;100.00
2268;BME280;11052;43.338;25.502;2023-04-28T02:08:53;101021.59;;;8.56;100.00
2268;BME280;11052;43.338;25.502;2023-04-28T02:11:20;101022.47;;;8.53;100.00
2268;BME280;11052;43.338;25.502;2023-04-28T02:13:47;101019.03;;;8.54;100.00
2268;BME280;11052;43.338;25.502;2023-04-28T02:16:19;101018.16;;;8.53;100.00
2268;BME280;11052;43.338;25.502;2023-04-28T02:18:46;101019.84;;;8.59;100.00
2268;BME280;11052;43.338;25.502;2023-04-28T02:21:13;101012.97;;;8.55;100.00
2268;BME280;11052;43.338;25.502;2023-04-28T02:23:40;101020.69;;;8.61;100.00
2268;BME280;11052;43.338;25.502;2023-04-28T02:26:07;101014.75;;;8.50;100.00
2268;BME280;11052;43.338;25.502;2023-04-28T02:28:34;101018.19;;;8.52;100.00
2268;BME280;11052;43.338;25.502;2023-04-28T02:31:06;101025.09;;;8.50;100.00
2268;BME280;11052;43.338;25.502;2023-04-28T02:33:35;101019.84;;;8.58;100.00
2268;BME280;11052;43.338;25.502;2023-04-28T02:36:04;101026.81;;;8.51;100.00
2268;BME280;11052;43.338;25.502;2023-04-28T02:38:31;101027.59;;;8.58;100.00
2268;BME280;11052;43.338;25.502;2023-04-28T02:40:59;101027.63;;;8.54;100.00
2268;BME280;11052;43.338;25.502;2023-04-28T02:43:27;101032.00;;;8.48;100.00
2268;BME280;11052;43.338;25.502;2023-04-28T02:45:54;101025.06;;;8.54;100.00
2268;BME280;11052;43.338;25.502;2023-04-28T02:48:21;101035.44;;;8.50;100.00
2268;BME280;11052;43.338;25.502;2023-04-28T02:50:50;101032.91;;;8.44;100.00
2268;BME280;11052;43.338;25.502;2023-04-28T02:53:17;101042.34;;;8.48;100.00
2268;BME280;11052;43.338;25.502;2023-04-28T02:55:44;101050.13;;;8.43;100.00
2268;BME280;11052;43.338;25.502;2023-04-28T02:58:12;101053.50;;;8.51;100.00
2268;BME280;11052;43.338;25.502;2023-04-28T03:00:39;101052.56;;;8.60;100.00
2268;BME280;11052;43.338;25.502;2023-04-28T03:03:06;101057.00;;;8.44;100.00
2268;BME280;11052;43.338;25.502;2023-04-28T03:05:33;101069.16;;;8.32;100.00
2268;BME280;11052;43.338;25.502;2023-04-28T03:08:02;101068.31;;;8.28;100.00
2268;BME280;11052;43.338;25.502;2023-04-28T03:10:29;101070.91;;;8.25;100.00
2268;BME280;11052;43.338;25.502;2023-04-28T03:12:56;101072.63;;;8.28;100.00
2268;BME280;11052;43.338;25.502;2023-04-28T03:15:23;101076.91;;;8.29;100.00
2268;BME280;11052;43.338;25.502;2023-04-28T03:17:51;101085.59;;;8.21;100.00
2268;BME280;11052;43.338;25.502;2023-04-28T03:20:18;101089.00;;;8.23;100.00
2268;BME280;11052;43.338;25.502;2023-04-28T03:22:45;101097.59;;;8.26;100.00
2268;BME280;11052;43.338;25.502;2023-04-28T03:25:14;101096.78;;;8.20;100.00
2268;BME280;11052;43.338;25.502;2023-04-28T03:27:41;101097.59;;;8.29;100.00
2268;BME280;11052;43.338;25.502;2023-04-28T03:30:08;101109.63;;;8.30;100.00
2268;BME280;11052;43.338;25.502;2023-04-28T03:32:36;101102.63;;;8.47;100.00
2268;BME280;11052;43.338;25.502;2023-04-28T03:35:03;101113.03;;;8.41;100.00
2268;BME280;11052;43.338;25.502;2023-04-28T03:37:30;101113.81;;;8.47;100.00
2268;BME280;11052;43.338;25.502;2023-04-28T03:39:57;101127.50;;;8.60;100.00
2268;BME280;11052;43.338;25.502;2023-04-28T03:42:26;101122.22;;;8.68;100.00
2268;BME280;11052;43.338;25.502;2023-04-28T03:44:53;101119.63;;;8.71;100.00
2268;BME280;11052;43.338;25.502;2023-04-28T03:47:20;101116.19;;;8.70;100.00
2268;BME280;11052;43.338;25.502;2023-04-28T03:49:47;101117.84;;;8.77;100.00
2268;BME280;11052;43.338;25.502;2023-04-28T03:52:14;101116.91;;;8.83;100.00
2268;BME280;11052;43.338;25.502;2023-04-28T03:54:42;101122.09;;;8.81;100.00
2268;BME280;11052;43.338;25.502;2023-04-28T03:57:09;101127.22;;;8.86;100.00
2268;BME280;11052;43.338;25.502;2023-04-28T03:59:37;101128.06;;;8.90;100.00
2268;BME280;11052;43.338;25.502;2023-04-28T04:02:04;101129.72;;;8.95;100.00
2268;BME280;11052;43.338;25.502;2023-04-28T04:04:31;101129.59;;;9.07;100.00
2268;BME280;11052;43.338;25.502;2023-04-28T04:06:58;101139.78;;;9.23;100.00
2268;BME280;11052;43.338;25.502;2023-04-28T04:09:26;101134.47;;;9.36;100.00
2268;BME280;11052;43.338;25.502;2023-04-28T04:11:53;101131.78;;;9.44;100.00
2268;BME280;11052;43.338;25.502;2023-04-28T04:14:20;101129.09;;;9.51;100.00
2268;BME280;11052;43.338;25.502;2023-04-28T04:16:48;101141.81;;;9.67;100.00
2268;BME280;11052;43.338;25.502;2023-04-28T04:19:16;101139.22;;;9.68;100.00
2268;BME280;11052;43.338;25.502;2023-04-28T04:21:43;101139.94;;;9.79;100.00
2268;BME280;11052;43.338;25.502;2023-04-28T04:24:10;101141.88;;;9.64;100.00
2268;BME280;11052;43.338;25.502;2023-04-28T04:26:37;101152.19;;;9.67;100.00
2268;BME280;11052;43.338;25.502;2023-04-28T04:29:04;101143.56;;;9.66;100.00
2268;BME280;11052;43.338;25.502;2023-04-28T04:31:31;101149.78;;;9.53;100.00
2268;BME280;11052;43.338;25.502;2023-04-28T04:33:59;101151.41;;;9.60;100.00
2268;BME280;11052;43.338;25.502;2023-04-28T04:36:27;101149.56;;;9.68;100.00
2268;BME280;11052;43.338;25.502;2023-04-28T04:38:54;101161.59;;;9.72;100.00
2268;BME280;11052;43.338;25.502;2023-04-28T04:41:22;101165.84;;;9.78;100.00
2268;BME280;11052;43.338;25.502;2023-04-28T04:43:49;101162.34;;;9.82;100.00
2268;BME280;11052;43.338;25.502;2023-04-28T04:46:16;101163.88;;;9.97;100.00
2268;BME280;11052;43.338;25.502;2023-04-28T04:48:43;101166.34;;;10.06;100.00
2268;BME280;11052;43.338;25.502;2023-04-28T04:51:12;101161.00;;;10.16;100.00
2268;BME280;11052;43.338;25.502;2023-04-28T04:53:39;101170.22;;;10.37;100.00
2268;BME280;11052;43.338;25.502;2023-04-28T04:56:06;101170.06;;;10.46;100.00
2268;BME280;11052;43.338;25.502;2023-04-28T04:58:33;101168.66;;;10.79;100.00
2268;BME280;11052;43.338;25.502;2023-04-28T05:01:00;101174.75;;;10.77;100.00
2268;BME280;11052;43.338;25.502;2023-04-28T05:03:28;101183.16;;;10.91;100.00
2268;BME280;11052;43.338;25.502;2023-04-28T05:05:55;101182.06;;;11.04;100.00
2268;BME280;11052;43.338;25.502;2023-04-28T05:08:24;101188.81;;;11.14;100.00
2268;BME280;11052;43.338;25.502;2023-04-28T05:10:51;101185.41;;;11.11;100.00
2268;BME280;11052;43.338;25.502;2023-04-28T05:13:18;101186.94;;;11.21;100.00
2268;BME280;11052;43.338;25.502;2023-04-28T05:15:45;101189.34;;;11.30;100.00
2268;BME280;11052;43.338;25.502;2023-04-28T05:18:12;101191.38;;;11.59;100.00
2268;BME280;11052;43.338;25.502;2023-04-28T05:20:39;101190.94;;;11.82;100.00
2268;BME280;11052;43.338;25.502;2023-04-28T05:23:06;101195.81;;;11.97;100.00
2268;BME280;11052;43.338;25.502;2023-04-28T05:25:36;101195.28;;;11.81;100.00
2268;BME280;11052;43.338;25.502;2023-04-28T05:28:03;101195.44;;;11.72;100.00
2268;BME280;11052;43.338;25.502;2023-04-28T05:30:33;101202.50;;;11.66;100.00
2268;BME280;11052;43.338;25.502;2023-04-28T05:33:00;101200.81;;;11.63;100.00
2268;BME280;11052;43.338;25.502;2023-04-28T05:35:27;101203.97;;;12.19;100.00
2268;BME280;11052;43.338;25.502;2023-04-28T05:37:56;101203.38;;;12.46;100.00
2268;BME280;11052;43.338;25.502;2023-04-28T05:40:23;101207.91;;;12.37;100.00
2268;BME280;11052;43.338;25.502;2023-04-28T05:42:52;101205.53;;;12.28;100.00
2268;BME280;11052;43.338;25.502;2023-04-28T05:45:19;101204.84;;;12.20;100.00
2268;BME280;11052;43.338;25.502;2023-04-28T05:47:46;101214.78;;;12.02;100.00
2268;BME280;11052;43.338;25.502;2023-04-28T05:50:13;101209.38;;;12.11;100.00
2268;BME280;11052;43.338;25.502;2023-04-28T05:52:41;101211.34;;;12.00;100.00
2268;BME280;11052;43.338;25.502;2023-04-28T05:55:08;101212.16;;;12.04;100.00
2268;BME280;11052;43.338;25.502;2023-04-28T05:57:36;101215.97;;;12.26;100.00
2268;BME280;11052;43.338;25.502;2023-04-28T06:00:06;101221.41;;;12.54;100.00
2268;BME280;11052;43.338;25.502;2023-04-28T06:02:33;101224.00;;;12.54;100.00
2268;BME280;11052;43.338;25.502;2023-04-28T06:05:00;101219.66;;;12.55;100.00
2268;BME280;11052;43.338;25.502;2023-04-28T06:07:27;101225.06;;;12.45;100.00
2268;BME280;11052;43.338;25.502;2023-04-28T06:09:54;101227.59;;;12.48;100.00
2268;BME280;11052;43.338;25.502;2023-04-28T06:12:21;101231.97;;;12.46;100.00
2268;BME280;11052;43.338;25.502;2023-04-28T06:14:50;101231.22;;;12.41;100.00
2268;BME280;11052;43.338;25.502;2023-04-28T06:17:21;101230.84;;;12.94;100.00
2268;BME280;11052;43.338;25.502;2023-04-28T06:19:48;101219.72;;;13.54;100.00
2268;BME280;11052;43.338;25.502;2023-04-28T06:22:18;101220.16;;;13.99;100.00
2268;BME280;11052;43.338;25.502;2023-04-28T06:24:45;101224.00;;;13.56;100.00
2268;BME280;11052;43.338;25.502;2023-04-28T06:27:12;101221.41;;;13.56;100.00
2268;BME280;11052;43.338;25.502;2023-04-28T06:29:40;101223.06;;;13.88;100.00
2268;BME280;11052;43.338;25.502;2023-04-28T06:32:07;101224.44;;;13.72;100.00
2268;BME280;11052;43.338;25.502;2023-04-28T06:34:36;101215.66;;;14.04;100.00
2268;BME280;11052;43.338;25.502;2023-04-28T06:37:03;101225.47;;;14.80;100.00
2268;BME280;11052;43.338;25.502;2023-04-28T06:39:31;101226.88;;;15.41;100.00
2268;BME280;11052;43.338;25.502;2023-04-28T06:41:58;101227.22;;;15.57;86.75
2268;BME280;11052;43.338;25.502;2023-04-28T06:44:26;101230.19;;;15.94;97.53
2268;BME280;11052;43.338;25.502;2023-04-28T06:46:53;101233.97;;;16.32;92.69
2268;BME280;11052;43.338;25.502;2023-04-28T06:49:22;101226.28;;;16.71;85.88
2268;BME280;11052;43.338;25.502;2023-04-28T06:51:52;101226.41;;;16.90;92.30
2268;BME280;11052;43.338;25.502;2023-04-28T06:54:19;101223.72;;;17.32;80.93
2268;BME280;11052;43.338;25.502;2023-04-28T06:56:46;101222.03;;;17.31;75.41
2268;BME280;11052;43.338;25.502;2023-04-28T06:59:13;101227.84;;;17.38;78.65
2268;BME280;11052;43.338;25.502;2023-04-28T07:01:40;101225.13;;;17.60;76.31
2268;BME280;11052;43.338;25.502;2023-04-28T07:04:07;101224.47;;;17.75;71.97
2268;BME280;11052;43.338;25.502;2023-04-28T07:06:34;101218.94;;;17.81;75.21
2268;BME280;11052;43.338;25.502;2023-04-28T07:09:03;101223.28;;;18.01;76.06
2268;BME280;11052;43.338;25.502;2023-04-28T07:11:33;101232.16;;;18.17;74.71
2268;BME280;11052;43.338;25.502;2023-04-28T07:14:00;101229.09;;;18.08;75.71
2268;BME280;11052;43.338;25.502;2023-04-28T07:16:27;101229.38;;;18.01;72.73
2268;BME280;11052;43.338;25.502;2023-04-28T07:18:54;101233.75;;;17.23;74.48
2268;BME280;11052;43.338;25.502;2023-04-28T07:21:21;101227.53;;;17.25;72.69
2268;BME280;11052;43.338;25.502;2023-04-28T07:23:48;101232.19;;;17.19;74.36
2268;BME280;11052;43.338;25.502;2023-04-28T07:26:17;101223.53;;;17.17;73.32
2268;BME280;11052;43.338;25.502;2023-04-28T07:28:44;101229.03;;;17.11;76.28
2268;BME280;11052;43.338;25.502;2023-04-28T07:31:11;101219.50;;;17.49;79.15
2268;BME280;11052;43.338;25.502;2023-04-28T07:33:38;101214.69;;;17.79;72.95
2268;BME280;11052;43.338;25.502;2023-04-28T07:36:06;101215.91;;;17.90;73.57
2268;BME280;11052;43.338;25.502;2023-04-28T07:38:33;101222.06;;;18.27;76.38
2268;BME280;11052;43.338;25.502;2023-04-28T07:41:01;101215.72;;;18.50;73.67
2268;BME280;11052;43.338;25.502;2023-04-28T07:43:30;101220.34;;;18.81;70.87
2268;BME280;11052;43.338;25.502;2023-04-28T07:45:57;101216.50;;;18.33;63.34
2268;BME280;11052;43.338;25.502;2023-04-28T07:48:24;101215.84;;;18.11;67.66
2268;BME280;11052;43.338;25.502;2023-04-28T07:50:52;101213.47;;;17.67;60.79
2268;BME280;11052;43.338;25.502;2023-04-28T07:53:19;101215.41;;;17.82;66.26
2268;BME280;11052;43.338;25.502;2023-04-28T07:55:46;101211.59;;;17.89;60.70
2268;BME280;11052;43.338;25.502;2023-04-28T07:58:13;101218.31;;;17.76;61.84
2268;BME280;11052;43.338;25.502;2023-04-28T08:00:42;101215.97;;;17.89;66.28
2268;BME280;11052;43.338;25.502;2023-04-28T08:03:09;101214.78;;;18.15;64.27
2268;BME280;11052;43.338;25.502;2023-04-28T08:05:37;101212.22;;;17.94;63.95
2268;BME280;11052;43.338;25.502;2023-04-28T08:08:04;101215.06;;;18.09;63.12
2268;BME280;11052;43.338;25.502;2023-04-28T08:10:31;101207.03;;;17.74;52.89
2268;BME280;11052;43.338;25.502;2023-04-28T08:12:58;101206.97;;;17.55;56.31
2268;BME280;11052;43.338;25.502;2023-04-28T08:15:26;101208.63;;;16.33;58.01
2268;BME280;11052;43.338;25.502;2023-04-28T08:17:54;101210.69;;;15.80;57.48
2268;BME280;11052;43.338;25.502;2023-04-28T08:20:21;101202.41;;;16.14;60.13
2268;BME280;11052;43.338;25.502;2023-04-28T08:22:48;101195.34;;;16.59;62.86
2268;BME280;11052;43.338;25.502;2023-04-28T08:25:15;101202.28;;;16.60;60.80
2268;BME280;11052;43.338;25.502;2023-04-28T08:27:43;101188.53;;;16.55;64.19
2268;BME280;11052;43.338;25.502;2023-04-28T08:30:10;101189.59;;;16.93;64.00
2268;BME280;11052;43.338;25.502;2023-04-28T08:32:37;101188.78;;;16.71;58.91
2268;BME280;11052;43.338;25.502;2023-04-28T08:35:06;101197.44;;;16.29;57.09
2268;BME280;11052;43.338;25.502;2023-04-28T08:37:34;101193.50;;;16.41;56.18
2268;BME280;11052;43.338;25.502;2023-04-28T08:40:01;101184.56;;;16.89;60.20
2268;BME280;11052;43.338;25.502;2023-04-28T08:42:34;101186.34;;;17.48;62.36
2268;BME280;11052;43.338;25.502;2023-04-28T08:45:03;101187.66;;;17.37;57.96
2268;BME280;11052;43.338;25.502;2023-04-28T08:47:33;101186.06;;;17.15;54.88
2268;BME280;11052;43.338;25.502;2023-04-28T08:50:06;101180.63;;;17.19;59.80
2268;BME280;11052;43.338;25.502;2023-04-28T08:52:34;101170.66;;;17.66;67.82
2268;BME280;11052;43.338;25.502;2023-04-28T08:55:05;101171.88;;;17.78;57.50
2268;BME280;11052;43.338;25.502;2023-04-28T08:57:37;101172.00;;;18.13;59.87
2268;BME280;11052;43.338;25.502;2023-04-28T09:00:06;101172.59;;;17.82;58.82
2268;BME280;11052;43.338;25.502;2023-04-28T09:02:33;101176.56;;;17.72;57.06
2268;BME280;11052;43.338;25.502;2023-04-28T09:05:02;101171.38;;;17.50;58.99
2268;BME280;11052;43.338;25.502;2023-04-28T09:07:30;101167.34;;;17.43;55.97
2268;BME280;11052;43.338;25.502;2023-04-28T09:10:22;101161.69;;;17.52;61.53
2268;BME280;11052;43.338;25.502;2023-04-28T09:12:51;101169.56;;;16.92;56.73
2268;BME280;11052;43.338;25.502;2023-04-28T09:15:29;101167.53;;;16.99;56.54
2268;BME280;11052;43.338;25.502;2023-04-28T09:17:56;101161.25;;;17.42;58.38
2268;BME280;11052;43.338;25.502;2023-04-28T09:20:25;101161.03;;;17.86;56.63
2268;BME280;11052;43.338;25.502;2023-04-28T09:22:55;101149.84;;;17.43;55.01
2268;BME280;11052;43.338;25.502;2023-04-28T09:25:23;101149.97;;;17.21;61.65
2268;BME280;11052;43.338;25.502;2023-04-28T09:27:51;101154.88;;;17.68;60.73
2268;BME280;11052;43.338;25.502;2023-04-28T09:30:18;101152.63;;;17.59;54.88
2268;BME280;11052;43.338;25.502;2023-04-28T09:33:03;101146.00;;;17.71;61.56
2268;BME280;11052;43.338;25.502;2023-04-28T09:35:38;101151.63;;;16.61;58.40
2268;BME280;11052;43.338;25.502;2023-04-28T09:38:07;101145.84;;;16.53;60.87
2268;BME280;11052;43.338;25.502;2023-04-28T09:40:52;101142.44;;;16.51;62.53
2268;BME280;11052;43.338;25.502;2023-04-28T09:43:24;101145.78;;;16.55;61.96
2268;BME280;11052;43.338;25.502;2023-04-28T09:45:51;101139.81;;;16.51;61.43
2268;BME280;11052;43.338;25.502;2023-04-28T09:48:26;101147.03;;;16.68;61.50
2268;BME280;11052;43.338;25.502;2023-04-28T09:50:54;101144.78;;;17.20;59.37
2268;BME280;11052;43.338;25.502;2023-04-28T09:53:23;101140.16;;;17.64;60.41
2268;BME280;11052;43.338;25.502;2023-04-28T09:55:51;101131.75;;;17.76;58.16
2268;BME280;11052;43.338;25.502;2023-04-28T09:58:20;101127.84;;;18.04;58.13
2268;BME280;11052;43.338;25.502;2023-04-28T10:00:51;101120.22;;;18.33;57.87
2268;BME280;11052;43.338;25.502;2023-04-28T10:03:20;101122.88;;;17.97;56.01
2268;BME280;11052;43.338;25.502;2023-04-28T10:05:49;101116.75;;;18.16;60.48
2268;BME280;11052;43.338;25.502;2023-04-28T10:08:18;101114.41;;;18.80;61.08
2268;BME280;11052;43.338;25.502;2023-04-28T10:10:48;101112.91;;;18.57;54.06
2268;BME280;11052;43.338;25.502;2023-04-28T10:13:18;101118.28;;;18.73;56.92
2268;BME280;11052;43.338;25.502;2023-04-28T10:15:46;101112.25;;;18.88;54.99
2268;BME280;11052;43.338;25.502;2023-04-28T10:18:13;101118.63;;;19.33;56.70
2268;BME280;11052;43.338;25.502;2023-04-28T10:20:43;101113.69;;;19.27;56.99
2268;BME280;11052;43.338;25.502;2023-04-28T10:23:28;101113.97;;;19.38;55.99
2268;BME280;11052;43.338;25.502;2023-04-28T10:25:58;101116.34;;;19.10;50.31
2268;BME280;11052;43.338;25.502;2023-04-28T10:28:26;101111.78;;;18.97;52.70
2268;BME280;11052;43.338;25.502;2023-04-28T10:31:09;101103.22;;;18.77;52.78
2268;BME280;11052;43.338;25.502;2023-04-28T10:33:37;101103.75;;;19.16;62.91
2268;BME280;11052;43.338;25.502;2023-04-28T10:36:05;101102.78;;;19.50;61.69
2268;BME280;11052;43.338;25.502;2023-04-28T10:38:32;101099.63;;;19.92;53.80
2268;BME280;11052;43.338;25.502;2023-04-28T10:41:01;101106.56;;;19.62;55.91
2268;BME280;11052;43.338;25.502;2023-04-28T10:43:33;101092.16;;;19.69;60.47
2268;BME280;11052;43.338;25.502;2023-04-28T10:46:04;101097.47;;;19.52;57.27
2268;BME280;11052;43.338;25.502;2023-04-28T10:48:54;101090.97;;;19.75;59.23
2268;BME280;11052;43.338;25.502;2023-04-28T10:51:28;101088.13;;;19.46;53.84
2268;BME280;11052;43.338;25.502;2023-04-28T10:54:15;101083.94;;;19.26;52.03
2268;BME280;11052;43.338;25.502;2023-04-28T10:57:16;101081.53;;;19.22;51.93
2268;BME280;11052;43.338;25.502;2023-04-28T10:59:43;101083.66;;;19.15;54.60
2268;BME280;11052;43.338;25.502;2023-04-28T11:05:16;101084.56;;;19.47;50.90
2268;BME280;11052;43.338;25.502;2023-04-28T11:11:25;101076.63;;;18.48;52.25
2268;BME280;11052;43.338;25.502;2023-04-28T11:13:55;101076.34;;;18.72;53.60
2268;BME280;11052;43.338;25.502;2023-04-28T11:16:50;101074.34;;;19.25;58.16
2268;BME280;11052;43.338;25.502;2023-04-28T11:19:19;101070.44;;;19.66;56.17
2268;BME280;11052;43.338;25.502;2023-04-28T11:21:47;101071.44;;;19.14;55.68
2268;BME280;11052;43.338;25.502;2023-04-28T11:24:14;101063.56;;;19.14;57.64
2268;BME280;11052;43.338;25.502;2023-04-28T11:26:43;101069.06;;;19.10;54.09
2268;BME280;11052;43.338;25.502;2023-04-28T11:29:12;101068.19;;;19.09;56.84
2268;BME280;11052;43.338;25.502;2023-04-28T11:31:48;101067.38;;;18.76;56.74
2268;BME280;11052;43.338;25.502;2023-04-28T11:34:18;101067.84;;;18.66;55.77
2268;BME280;11052;43.338;25.502;2023-04-28T11:36:46;101067.34;;;18.58;57.50
2268;BME280;11052;43.338;25.502;2023-04-28T11:39:13;101065.97;;;18.51;58.17
2268;BME280;11052;43.338;25.502;2023-04-28T11:41:42;101065.81;;;18.37;57.11
2268;BME280;11052;43.338;25.502;2023-04-28T11:44:12;101065.50;;;18.43;57.84
2268;BME280;11052;43.338;25.502;2023-04-28T11:46:46;101062.72;;;18.29;57.39
2268;BME280;11052;43.338;25.502;2023-04-28T11:49:16;101063.34;;;18.17;54.92
2268;BME280;11052;43.338;25.502;2023-04-28T11:51:43;101056.53;;;17.95;54.02
2268;BME280;11052;43.338;25.502;2023-04-28T11:54:13;101064.19;;;17.81;55.62
2268;BME280;11052;43.338;25.502;2023-04-28T11:56:41;101054.47;;;17.64;56.43
2268;BME280;11052;43.338;25.502;2023-04-28T11:59:11;101052.63;;;17.48;57.75
2268;BME280;11052;43.338;25.502;2023-04-28T12:01:47;101047.34;;;17.30;56.87
2268;BME280;11052;43.338;25.502;2023-04-28T12:04:25;101047.13;;;17.16;56.47
2268;BME280;11052;43.338;25.502;2023-04-28T12:07:00;101037.69;;;17.50;56.95
2268;BME280;11052;43.338;25.502;2023-04-28T12:09:28;101036.97;;;17.84;56.83
2268;BME280;11052;43.338;25.502;2023-04-28T12:11:57;101034.78;;;18.11;54.67
2268;BME280;11052;43.338;25.502;2023-04-28T12:14:25;101029.34;;;18.31;54.71
2268;BME280;11052;43.338;25.502;2023-04-28T12:16:52;101027.13;;;18.41;54.95
2268;BME280;11052;43.338;25.502;2023-04-28T12:19:20;101014.75;;;18.25;57.38
2268;BME280;11052;43.338;25.502;2023-04-28T12:22:01;101012.41;;;18.04;50.99
2268;BME280;11052;43.338;25.502;2023-04-28T12:24:29;101003.03;;;17.81;55.22
2268;BME280;11052;43.338;25.502;2023-04-28T12:27:14;100994.41;;;17.96;56.06
2268;BME280;11052;43.338;25.502;2023-04-28T12:29:43;100997.81;;;18.15;53.74
2268;BME280;11052;43.338;25.502;2023-04-28T12:32:12;100988.38;;;17.94;54.20
2268;BME280;11052;43.338;25.502;2023-04-28T12:34:40;101001.00;;;17.68;56.56
2268;BME280;11052;43.338;25.502;2023-04-28T12:37:08;100996.44;;;17.72;55.03
2268;BME280;11052;43.338;25.502;2023-04-28T12:39:38;100997.56;;;17.85;53.99
2268;BME280;11052;43.338;25.502;2023-04-28T12:42:06;100990.16;;;18.11;54.95
2268;BME280;11052;43.338;25.502;2023-04-28T12:44:34;100994.94;;;18.02;54.21
2268;BME280;11052;43.338;25.502;2023-04-28T12:47:05;100981.84;;;18.02;53.74
2268;BME280;11052;43.338;25.502;2023-04-28T12:49:33;100983.91;;;18.13;52.63
2268;BME280;11052;43.338;25.502;2023-04-28T12:52:00;100983.75;;;18.16;54.58
2268;BME280;11052;43.338;25.502;2023-04-28T12:54:28;100982.88;;;18.33;52.16
2268;BME280;11052;43.338;25.502;2023-04-28T12:56:55;100983.38;;;18.57;55.01
2268;BME280;11052;43.338;25.502;2023-04-28T12:59:22;100988.13;;;18.33;51.13
2268;BME280;11052;43.338;25.502;2023-04-28T13:01:49;100978.63;;;18.65;51.00